sensor_id;sensor_type;location;lat;lon;timestamp;P1;P2;P0
76420;PMS5003;65253;52.354;13.614;2023-02-15T00:00:00;27;18;
76420;PMS5003;65253;52.354;13.614;2023-02-15T00:04:00;31;17;
76420;PMS5003;65253;52.354;13.614;2023-02-15T00:08:00;38;21;
76420;PMS5003;65253;52.354;13.614;2023-02-15T00:12:00;35;22;
76420;PMS5003;65253;52.354;13.614;2023-02-15T00:16:01;33;25;
76420;PMS5003;65253;52.354;13.614;2023-02-15T00:20:00;27;21;
76420;PMS5003;65253;52.354;13.614;2023-02-15T00:24:01;30;17;
76420;PMS5003;65253;52.354;13.614;2023-02-15T00:28:00;34;24;
76420;PMS5003;65253;52.354;13.614;2023-02-15T00:32:00;34;21;
76420;PMS5003;65253;52.354;13.614;2023-02-15T00:36:01;34;22;
76420;PMS5003;65253;52.354;13.614;2023-02-15T00:40:00;26;18;
76420;PMS5003;65253;52.354;13.614;2023-02-15T00:44:00;29;20;
76420;PMS5003;65253;52.354;13.614;2023-02-15T00:48:00;33;20;
76420;PMS5003;65253;52.354;13.614;2023-02-15T00:52:00;36;19;
76420;PMS5003;65253;52.354;13.614;2023-02-15T00:56:01;33;19;
76420;PMS5003;65253;52.354;13.614;2023-02-15T01:00:00;35;22;
76420;PMS5003;65253;52.354;13.614;2023-02-15T01:04:01;24;16;
76420;PMS5003;65253;52.354;13.614;2023-02-15T01:08:00;22;17;
76420;PMS5003;65253;52.354;13.614;2023-02-15T01:12:00;31;19;
76420;PMS5003;65253;52.354;13.614;2023-02-15T01:16:01;28;17;
76420;PMS5003;65253;52.354;13.614;2023-02-15T01:20:00;19;17;
76420;PMS5003;65253;52.354;13.614;2023-02-15T01:24:00;33;23;
76420;PMS5003;65253;52.354;13.614;2023-02-15T01:28:00;27;20;
76420;PMS5003;65253;52.354;13.614;2023-02-15T01:32:00;33;22;
76420;PMS5003;65253;52.354;13.614;2023-02-15T01:36:01;26;18;
76420;PMS5003;65253;52.354;13.614;2023-02-15T01:40:00;35;23;
76420;PMS5003;65253;52.354;13.614;2023-02-15T01:44:01;25;17;
76420;PMS5003;65253;52.354;13.614;2023-02-15T01:48:02;27;20;
76420;PMS5003;65253;52.354;13.614;2023-02-15T01:52:00;25;16;
76420;PMS5003;65253;52.354;13.614;2023-02-15T01:56:02;27;19;
76420;PMS5003;65253;52.354;13.614;2023-02-15T02:00:01;30;20;
76420;PMS5003;65253;52.354;13.614;2023-02-15T02:04:02;31;21;
76420;PMS5003;65253;52.354;13.614;2023-02-15T02:08:01;33;20;
76420;PMS5003;65253;52.354;13.614;2023-02-15T02:12:00;30;17;
76420;PMS5003;65253;52.354;13.614;2023-02-15T02:16:02;25;17;
76420;PMS5003;65253;52.354;13.614;2023-02-15T02:20:08;39;20;
76420;PMS5003;65253;52.354;13.614;2023-02-15T02:24:05;31;17;
76420;PMS5003;65253;52.354;13.614;2023-02-15T02:28:02;29;20;
76420;PMS5003;65253;52.354;13.614;2023-02-15T02:32:06;29;17;
76420;PMS5003;65253;52.354;13.614;2023-02-15T02:36:04;28;21;
76420;PMS5003;65253;52.354;13.614;2023-02-15T02:40:03;27;19;
76420;PMS5003;65253;52.354;13.614;2023-02-15T02:44:02;21;21;
76420;PMS5003;65253;52.354;13.614;2023-02-15T02:48:02;35;22;
76420;PMS5003;65253;52.354;13.614;2023-02-15T02:52:01;36;19;
76420;PMS5003;65253;52.354;13.614;2023-02-15T02:56:02;36;21;
76420;PMS5003;65253;52.354;13.614;2023-02-15T03:00:00;31;22;
76420;PMS5003;65253;52.354;13.614;2023-02-15T03:04:01;36;19;
76420;PMS5003;65253;52.354;13.614;2023-02-15T03:08:00;33;24;
76420;PMS5003;65253;52.354;13.614;2023-02-15T03:12:00;43;22;
76420;PMS5003;65253;52.354;13.614;2023-02-15T03:16:01;33;19;
76420;PMS5003;65253;52.354;13.614;2023-02-15T03:20:01;31;19;
76420;PMS5003;65253;52.354;13.614;2023-02-15T03:24:02;36;24;
76420;PMS5003;65253;52.354;13.614;2023-02-15T03:28:01;28;15;
76420;PMS5003;65253;52.354;13.614;2023-02-15T03:32:02;38;20;
76420;PMS5003;65253;52.354;13.614;2023-02-15T03:36:02;40;22;
76420;PMS5003;65253;52.354;13.614;2023-02-15T03:40:01;38;23;
76420;PMS5003;65253;52.354;13.614;2023-02-15T03:44:02;45;27;
76420;PMS5003;65253;52.354;13.614;2023-02-15T03:48:00;37;23;
76420;PMS5003;65253;52.354;13.614;2023-02-15T03:52:00;38;20;
76420;PMS5003;65253;52.354;13.614;2023-02-15T03:56:01;29;16;
76420;PMS5003;65253;52.354;13.614;2023-02-15T04:00:01;34;22;
76420;PMS5003;65253;52.354;13.614;2023-02-15T04:04:01;39;23;
76420;PMS5003;65253;52.354;13.614;2023-02-15T04:08:00;38;24;
76420;PMS5003;65253;52.354;13.614;2023-02-15T04:12:00;37;24;
76420;PMS5003;65253;52.354;13.614;2023-02-15T04:16:01;35;18;
76420;PMS5003;65253;52.354;13.614;2023-02-15T04:20:00;38;24;
76420;PMS5003;65253;52.354;13.614;2023-02-15T04:24:00;39;27;
76420;PMS5003;65253;52.354;13.614;2023-02-15T04:28:00;29;18;
76420;PMS5003;65253;52.354;13.614;2023-02-15T04:32:00;36;21;
76420;PMS5003;65253;52.354;13.614;2023-02-15T04:36:01;34;20;
76420;PMS5003;65253;52.354;13.614;2023-02-15T04:40:00;34;24;
76420;PMS5003;65253;52.354;13.614;2023-02-15T04:44:00;42;25;
76420;PMS5003;65253;52.354;13.614;2023-02-15T04:48:00;40;27;
76420;PMS5003;65253;52.354;13.614;2023-02-15T04:52:00;38;25;
76420;PMS5003;65253;52.354;13.614;2023-02-15T04:56:01;35;31;
76420;PMS5003;65253;52.354;13.614;2023-02-15T05:00:00;43;28;
76420;PMS5003;65253;52.354;13.614;2023-02-15T05:04:00;32;22;
76420;PMS5003;65253;52.354;13.614;2023-02-15T05:08:00;31;20;
76420;PMS5003;65253;52.354;13.614;2023-02-15T05:12:00;35;24;
76420;PMS5003;65253;52.354;13.614;2023-02-15T05:16:01;36;20;
76420;PMS5003;65253;52.354;13.614;2023-02-15T05:20:00;42;25;
76420;PMS5003;65253;52.354;13.614;2023-02-15T05:24:00;40;28;
76420;PMS5003;65253;52.354;13.614;2023-02-15T05:28:00;45;26;
76420;PMS5003;65253;52.354;13.614;2023-02-15T05:32:01;44;26;
76420;PMS5003;65253;52.354;13.614;2023-02-15T05:36:03;45;31;
76420;PMS5003;65253;52.354;13.614;2023-02-15T05:40:00;49;26;
76420;PMS5003;65253;52.354;13.614;2023-02-15T05:44:00;36;28;
76420;PMS5003;65253;52.354;13.614;2023-02-15T05:48:00;44;27;
76420;PMS5003;65253;52.354;13.614;2023-02-15T05:52:00;39;22;
76420;PMS5003;65253;52.354;13.614;2023-02-15T05:56:01;34;29;
76420;PMS5003;65253;52.354;13.614;2023-02-15T06:00:00;35;25;
76420;PMS5003;65253;52.354;13.614;2023-02-15T06:04:00;46;27;
76420;PMS5003;65253;52.354;13.614;2023-02-15T06:08:00;35;26;
76420;PMS5003;65253;52.354;13.614;2023-02-15T06:12:00;36;24;
76420;PMS5003;65253;52.354;13.614;2023-02-15T06:16:01;36;22;
76420;PMS5003;65253;52.354;13.614;2023-02-15T06:20:00;31;21;
76420;PMS5003;65253;52.354;13.614;2023-02-15T06:24:00;38;22;
76420;PMS5003;65253;52.354;13.614;2023-02-15T06:28:00;32;25;
76420;PMS5003;65253;52.354;13.614;2023-02-15T06:32:00;25;22;
76420;PMS5003;65253;52.354;13.614;2023-02-15T06:36:01;36;27;
76420;PMS5003;65253;52.354;13.614;2023-02-15T06:40:04;45;29;
76420;PMS5003;65253;52.354;13.614;2023-02-15T06:44:00;34;26;
76420;PMS5003;65253;52.354;13.614;2023-02-15T06:48:00;36;24;
76420;PMS5003;65253;52.354;13.614;2023-02-15T06:52:00;41;24;
76420;PMS5003;65253;52.354;13.614;2023-02-15T06:56:02;32;25;
76420;PMS5003;65253;52.354;13.614;2023-02-15T07:00:00;44;33;
76420;PMS5003;65253;52.354;13.614;2023-02-15T07:04:00;31;20;
76420;PMS5003;65253;52.354;13.614;2023-02-15T07:08:00;40;22;
76420;PMS5003;65253;52.354;13.614;2023-02-15T07:12:00;38;29;
76420;PMS5003;65253;52.354;13.614;2023-02-15T07:16:01;31;28;
76420;PMS5003;65253;52.354;13.614;2023-02-15T07:20:00;33;24;
76420;PMS5003;65253;52.354;13.614;2023-02-15T07:24:00;35;23;
76420;PMS5003;65253;52.354;13.614;2023-02-15T07:28:01;41;24;
76420;PMS5003;65253;52.354;13.614;2023-02-15T07:32:00;43;28;
76420;PMS5003;65253;52.354;13.614;2023-02-15T07:36:02;31;17;
76420;PMS5003;65253;52.354;13.614;2023-02-15T07:40:00;34;21;
76420;PMS5003;65253;52.354;13.614;2023-02-15T07:44:00;34;24;
76420;PMS5003;65253;52.354;13.614;2023-02-15T07:48:00;36;22;
76420;PMS5003;65253;52.354;13.614;2023-02-15T07:52:00;32;20;
76420;PMS5003;65253;52.354;13.614;2023-02-15T07:56:01;37;23;
76420;PMS5003;65253;52.354;13.614;2023-02-15T08:00:00;33;23;
76420;PMS5003;65253;52.354;13.614;2023-02-15T08:04:01;32;25;
76420;PMS5003;65253;52.354;13.614;2023-02-15T08:08:00;38;22;
76420;PMS5003;65253;52.354;13.614;2023-02-15T08:12:00;40;23;
76420;PMS5003;65253;52.354;13.614;2023-02-15T08:16:01;32;22;
76420;PMS5003;65253;52.354;13.614;2023-02-15T08:20:00;35;25;
76420;PMS5003;65253;52.354;13.614;2023-02-15T08:24:00;33;22;
76420;PMS5003;65253;52.354;13.614;2023-02-15T08:28:00;39;22;
76420;PMS5003;65253;52.354;13.614;2023-02-15T08:32:02;36;26;
76420;PMS5003;65253;52.354;13.614;2023-02-15T08:36:02;39;24;
76420;PMS5003;65253;52.354;13.614;2023-02-15T08:40:00;30;23;
76420;PMS5003;65253;52.354;13.614;2023-02-15T08:44:01;34;25;
76420;PMS5003;65253;52.354;13.614;2023-02-15T08:48:00;38;21;
76420;PMS5003;65253;52.354;13.614;2023-02-15T08:52:00;30;23;
76420;PMS5003;65253;52.354;13.614;2023-02-15T08:56:00;34;24;
76420;PMS5003;65253;52.354;13.614;2023-02-15T09:00:00;37;24;
76420;PMS5003;65253;52.354;13.614;2023-02-15T09:04:01;29;21;
76420;PMS5003;65253;52.354;13.614;2023-02-15T09:08:00;36;20;
76420;PMS5003;65253;52.354;13.614;2023-02-15T09:12:00;32;20;
76420;PMS5003;65253;52.354;13.614;2023-02-15T09:16:01;35;22;
76420;PMS5003;65253;52.354;13.614;2023-02-15T09:20:00;34;19;
76420;PMS5003;65253;52.354;13.614;2023-02-15T09:24:01;36;27;
76420;PMS5003;65253;52.354;13.614;2023-02-15T09:28:00;35;23;
76420;PMS5003;65253;52.354;13.614;2023-02-15T09:32:00;47;34;
76420;PMS5003;65253;52.354;13.614;2023-02-15T09:36:00;41;31;
76420;PMS5003;65253;52.354;13.614;2023-02-15T09:40:00;27;18;
76420;PMS5003;65253;52.354;13.614;2023-02-15T09:44:03;49;30;
76420;PMS5003;65253;52.354;13.614;2023-02-15T09:48:07;35;26;
76420;PMS5003;65253;52.354;13.614;2023-02-15T09:52:07;42;28;
76420;PMS5003;65253;52.354;13.614;2023-02-15T09:56:02;42;30;
76420;PMS5003;65253;52.354;13.614;2023-02-15T10:00:02;44;28;
76420;PMS5003;65253;52.354;13.614;2023-02-15T10:04:04;36;21;
76420;PMS5003;65253;52.354;13.614;2023-02-15T10:08:05;33;26;
76420;PMS5003;65253;52.354;13.614;2023-02-15T10:12:06;35;22;
76420;PMS5003;65253;52.354;13.614;2023-02-15T10:16:05;37;24;
76420;PMS5003;65253;52.354;13.614;2023-02-15T10:20:04;41;25;
76420;PMS5003;65253;52.354;13.614;2023-02-15T10:24:05;56;33;
76420;PMS5003;65253;52.354;13.614;2023-02-15T10:28:02;31;26;
76420;PMS5003;65253;52.354;13.614;2023-02-15T10:32:03;31;25;
76420;PMS5003;65253;52.354;13.614;2023-02-15T10:36:02;30;25;
76420;PMS5003;65253;52.354;13.614;2023-02-15T10:40:02;36;27;
76420;PMS5003;65253;52.354;13.614;2023-02-15T10:44:05;44;28;
76420;PMS5003;65253;52.354;13.614;2023-02-15T10:48:05;44;29;
76420;PMS5003;65253;52.354;13.614;2023-02-15T10:52:05;29;24;
76420;PMS5003;65253;52.354;13.614;2023-02-15T10:56:03;47;30;
76420;PMS5003;65253;52.354;13.614;2023-02-15T11:00:02;34;26;
76420;PMS5003;65253;52.354;13.614;2023-02-15T11:04:05;39;27;
76420;PMS5003;65253;52.354;13.614;2023-02-15T11:08:00;38;30;
76420;PMS5003;65253;52.354;13.614;2023-02-15T11:12:00;40;28;
76420;PMS5003;65253;52.354;13.614;2023-02-15T11:16:00;32;23;
76420;PMS5003;65253;52.354;13.614;2023-02-15T11:20:04;46;28;
76420;PMS5003;65253;52.354;13.614;2023-02-15T11:24:00;38;22;
76420;PMS5003;65253;52.354;13.614;2023-02-15T11:28:00;35;30;
76420;PMS5003;65253;52.354;13.614;2023-02-15T11:32:02;40;27;
76420;PMS5003;65253;52.354;13.614;2023-02-15T11:36:01;38;28;
76420;PMS5003;65253;52.354;13.614;2023-02-15T11:40:00;43;30;
76420;PMS5003;65253;52.354;13.614;2023-02-15T11:44:01;35;21;
76420;PMS5003;65253;52.354;13.614;2023-02-15T11:48:01;40;26;
76420;PMS5003;65253;52.354;13.614;2023-02-15T11:52:00;29;21;
76420;PMS5003;65253;52.354;13.614;2023-02-15T11:56:00;43;27;
76420;PMS5003;65253;52.354;13.614;2023-02-15T12:00:01;43;29;
76420;PMS5003;65253;52.354;13.614;2023-02-15T12:04:01;43;28;
76420;PMS5003;65253;52.354;13.614;2023-02-15T12:08:01;29;24;
76420;PMS5003;65253;52.354;13.614;2023-02-15T12:16:04;42;26;
76420;PMS5003;65253;52.354;13.614;2023-02-15T12:20:01;28;24;
76420;PMS5003;65253;52.354;13.614;2023-02-15T12:24:01;30;21;
76420;PMS5003;65253;52.354;13.614;2023-02-15T12:28:00;29;21;
76420;PMS5003;65253;52.354;13.614;2023-02-15T12:32:00;43;24;
76420;PMS5003;65253;52.354;13.614;2023-02-15T12:36:01;30;24;
76420;PMS5003;65253;52.354;13.614;2023-02-15T12:40:01;26;18;
76420;PMS5003;65253;52.354;13.614;2023-02-15T12:44:05;34;24;
76420;PMS5003;65253;52.354;13.614;2023-02-15T12:48:08;31;23;
76420;PMS5003;65253;52.354;13.614;2023-02-15T12:52:01;22;21;
76420;PMS5003;65253;52.354;13.614;2023-02-15T12:56:01;38;23;
76420;PMS5003;65253;52.354;13.614;2023-02-15T13:00:02;24;20;
76420;PMS5003;65253;52.354;13.614;2023-02-15T13:04:01;28;19;
76420;PMS5003;65253;52.354;13.614;2023-02-15T13:08:01;25;20;
76420;PMS5003;65253;52.354;13.614;2023-02-15T13:12:08;28;20;
76420;PMS5003;65253;52.354;13.614;2023-02-15T13:16:01;22;16;
76420;PMS5003;65253;52.354;13.614;2023-02-15T13:20:02;30;18;
76420;PMS5003;65253;52.354;13.614;2023-02-15T13:24:01;29;20;
76420;PMS5003;65253;52.354;13.614;2023-02-15T13:28:01;27;25;
76420;PMS5003;65253;52.354;13.614;2023-02-15T13:32:04;25;20;
76420;PMS5003;65253;52.354;13.614;2023-02-15T13:36:02;27;17;
76420;PMS5003;65253;52.354;13.614;2023-02-15T13:40:01;26;17;
76420;PMS5003;65253;52.354;13.614;2023-02-15T13:44:03;27;21;
76420;PMS5003;65253;52.354;13.614;2023-02-15T13:48:02;22;17;
76420;PMS5003;65253;52.354;13.614;2023-02-15T13:52:02;20;16;
76420;PMS5003;65253;52.354;13.614;2023-02-15T13:56:01;24;17;
76420;PMS5003;65253;52.354;13.614;2023-02-15T14:00:02;18;17;
76420;PMS5003;65253;52.354;13.614;2023-02-15T14:04:04;17;13;
76420;PMS5003;65253;52.354;13.614;2023-02-15T14:08:02;21;15;
76420;PMS5003;65253;52.354;13.614;2023-02-15T14:12:06;27;17;
76420;PMS5003;65253;52.354;13.614;2023-02-15T14:16:01;18;14;
76420;PMS5003;65253;52.354;13.614;2023-02-15T14:20:01;16;11;
76420;PMS5003;65253;52.354;13.614;2023-02-15T14:24:07;17;14;
76420;PMS5003;65253;52.354;13.614;2023-02-15T14:28:02;18;12;
76420;PMS5003;65253;52.354;13.614;2023-02-15T14:32:03;15;13;
76420;PMS5003;65253;52.354;13.614;2023-02-15T14:36:00;21;15;
76420;PMS5003;65253;52.354;13.614;2023-02-15T14:40:01;19;14;
76420;PMS5003;65253;52.354;13.614;2023-02-15T14:44:01;18;12;
76420;PMS5003;65253;52.354;13.614;2023-02-15T14:48:02;19;11;
76420;PMS5003;65253;52.354;13.614;2023-02-15T14:52:04;14;12;
76420;PMS5003;65253;52.354;13.614;2023-02-15T15:00:02;17;16;
76420;PMS5003;65253;52.354;13.614;2023-02-15T15:04:08;17;10;
76420;PMS5003;65253;52.354;13.614;2023-02-15T15:08:01;17;12;
76420;PMS5003;65253;52.354;13.614;2023-02-15T15:20:01;16;11;
76420;PMS5003;65253;52.354;13.614;2023-02-15T15:24:00;22;14;
76420;PMS5003;65253;52.354;13.614;2023-02-15T15:28:00;20;14;
76420;PMS5003;65253;52.354;13.614;2023-02-15T15:32:00;21;17;
76420;PMS5003;65253;52.354;13.614;2023-02-15T15:36:07;21;13;
76420;PMS5003;65253;52.354;13.614;2023-02-15T15:44:06;18;15;
76420;PMS5003;65253;52.354;13.614;2023-02-15T15:48:14;13;13;
76420;PMS5003;65253;52.354;13.614;2023-02-15T15:52:00;13;12;
76420;PMS5003;65253;52.354;13.614;2023-02-15T15:56:02;14;11;
76420;PMS5003;65253;52.354;13.614;2023-02-15T16:00:00;14;10;
76420;PMS5003;65253;52.354;13.614;2023-02-15T16:04:00;14;10;
76420;PMS5003;65253;52.354;13.614;2023-02-15T16:08:00;17;9;
76420;PMS5003;65253;52.354;13.614;2023-02-15T16:12:00;17;10;
76420;PMS5003;65253;52.354;13.614;2023-02-15T16:16:00;10;10;
76420;PMS5003;65253;52.354;13.614;2023-02-15T16:20:02;11;10;
76420;PMS5003;65253;52.354;13.614;2023-02-15T16:24:06;15;11;
76420;PMS5003;65253;52.354;13.614;2023-02-15T16:28:05;18;11;
76420;PMS5003;65253;52.354;13.614;2023-02-15T16:32:01;21;15;
76420;PMS5003;65253;52.354;13.614;2023-02-15T16:36:01;18;14;
76420;PMS5003;65253;52.354;13.614;2023-02-15T16:40:00;16;14;
76420;PMS5003;65253;52.354;13.614;2023-02-15T16:44:03;19;12;
76420;PMS5003;65253;52.354;13.614;2023-02-15T16:48:00;16;11;
76420;PMS5003;65253;52.354;13.614;2023-02-15T16:52:00;27;16;
76420;PMS5003;65253;52.354;13.614;2023-02-15T16:56:01;19;11;
76420;PMS5003;65253;52.354;13.614;2023-02-15T17:00:01;16;14;
76420;PMS5003;65253;52.354;13.614;2023-02-15T17:12:00;20;16;
76420;PMS5003;65253;52.354;13.614;2023-02-15T17:20:00;22;14;
76420;PMS5003;65253;52.354;13.614;2023-02-15T17:24:00;31;23;
76420;PMS5003;65253;52.354;13.614;2023-02-15T17:28:00;40;32;
76420;PMS5003;65253;52.354;13.614;2023-02-15T17:32:01;34;25;
76420;PMS5003;65253;52.354;13.614;2023-02-15T17:36:03;26;20;
76420;PMS5003;65253;52.354;13.614;2023-02-15T17:40:01;27;25;
76420;PMS5003;65253;52.354;13.614;2023-02-15T17:44:01;24;19;
76420;PMS5003;65253;52.354;13.614;2023-02-15T17:48:02;32;22;
76420;PMS5003;65253;52.354;13.614;2023-02-15T17:52:00;34;30;
76420;PMS5003;65253;52.354;13.614;2023-02-15T17:56:00;33;24;
76420;PMS5003;65253;52.354;13.614;2023-02-15T18:00:00;30;27;
76420;PMS5003;65253;52.354;13.614;2023-02-15T18:04:00;29;28;
76420;PMS5003;65253;52.354;13.614;2023-02-15T18:08:00;40;33;
76420;PMS5003;65253;52.354;13.614;2023-02-15T18:12:00;42;32;
76420;PMS5003;65253;52.354;13.614;2023-02-15T18:16:00;39;32;
76420;PMS5003;65253;52.354;13.614;2023-02-15T18:20:00;45;40;
76420;PMS5003;65253;52.354;13.614;2023-02-15T18:24:00;51;37;
76420;PMS5003;65253;52.354;13.614;2023-02-15T18:28:00;65;50;
76420;PMS5003;65253;52.354;13.614;2023-02-15T18:32:00;58;47;
76420;PMS5003;65253;52.354;13.614;2023-02-15T18:36:00;58;48;
76420;PMS5003;65253;52.354;13.614;2023-02-15T18:40:00;62;51;
76420;PMS5003;65253;52.354;13.614;2023-02-15T18:44:00;68;56;
76420;PMS5003;65253;52.354;13.614;2023-02-15T18:48:00;62;49;
76420;PMS5003;65253;52.354;13.614;2023-02-15T18:52:00;60;54;
76420;PMS5003;65253;52.354;13.614;2023-02-15T18:56:00;66;52;
76420;PMS5003;65253;52.354;13.614;2023-02-15T19:00:00;61;52;
76420;PMS5003;65253;52.354;13.614;2023-02-15T19:04:00;64;45;
76420;PMS5003;65253;52.354;13.614;2023-02-15T19:08:00;45;38;
76420;PMS5003;65253;52.354;13.614;2023-02-15T19:12:00;57;43;
76420;PMS5003;65253;52.354;13.614;2023-02-15T19:16:00;45;33;
76420;PMS5003;65253;52.354;13.614;2023-02-15T19:20:00;58;44;
76420;PMS5003;65253;52.354;13.614;2023-02-15T19:24:01;57;43;
76420;PMS5003;65253;52.354;13.614;2023-02-15T19:28:00;56;44;
76420;PMS5003;65253;52.354;13.614;2023-02-15T19:32:00;54;41;
76420;PMS5003;65253;52.354;13.614;2023-02-15T19:36:00;59;44;
76420;PMS5003;65253;52.354;13.614;2023-02-15T19:40:00;76;52;
76420;PMS5003;65253;52.354;13.614;2023-02-15T19:44:00;70;52;
76420;PMS5003;65253;52.354;13.614;2023-02-15T19:48:00;94;64;
76420;PMS5003;65253;52.354;13.614;2023-02-15T19:52:00;76;64;
76420;PMS5003;65253;52.354;13.614;2023-02-15T19:56:00;88;74;
76420;PMS5003;65253;52.354;13.614;2023-02-15T20:00:14;92;72;
76420;PMS5003;65253;52.354;13.614;2023-02-15T20:04:00;102;76;
76420;PMS5003;65253;52.354;13.614;2023-02-15T20:08:00;85;69;
76420;PMS5003;65253;52.354;13.614;2023-02-15T20:12:00;94;72;
76420;PMS5003;65253;52.354;13.614;2023-02-15T20:16:00;87;65;
76420;PMS5003;65253;52.354;13.614;2023-02-15T20:20:00;87;65;
76420;PMS5003;65253;52.354;13.614;2023-02-15T20:24:00;80;65;
76420;PMS5003;65253;52.354;13.614;2023-02-15T20:28:00;99;69;
76420;PMS5003;65253;52.354;13.614;2023-02-15T20:32:00;83;61;
76420;PMS5003;65253;52.354;13.614;2023-02-15T20:36:00;67;53;
76420;PMS5003;65253;52.354;13.614;2023-02-15T20:40:00;77;62;
76420;PMS5003;65253;52.354;13.614;2023-02-15T20:44:00;68;58;
76420;PMS5003;65253;52.354;13.614;2023-02-15T20:48:00;48;44;
76420;PMS5003;65253;52.354;13.614;2023-02-15T20:52:00;69;54;
76420;PMS5003;65253;52.354;13.614;2023-02-15T20:56:00;64;45;
76420;PMS5003;65253;52.354;13.614;2023-02-15T21:00:00;60;52;
76420;PMS5003;65253;52.354;13.614;2023-02-15T21:04:00;61;45;
76420;PMS5003;65253;52.354;13.614;2023-02-15T21:08:00;60;49;
76420;PMS5003;65253;52.354;13.614;2023-02-15T21:12:00;61;46;
76420;PMS5003;65253;52.354;13.614;2023-02-15T21:16:00;67;44;
76420;PMS5003;65253;52.354;13.614;2023-02-15T21:20:00;61;46;
76420;PMS5003;65253;52.354;13.614;2023-02-15T21:24:00;60;46;
76420;PMS5003;65253;52.354;13.614;2023-02-15T21:28:00;51;38;
76420;PMS5003;65253;52.354;13.614;2023-02-15T21:32:00;65;46;
76420;PMS5003;65253;52.354;13.614;2023-02-15T21:36:00;73;51;
76420;PMS5003;65253;52.354;13.614;2023-02-15T21:40:00;59;42;
76420;PMS5003;65253;52.354;13.614;2023-02-15T21:44:00;54;46;
76420;PMS5003;65253;52.354;13.614;2023-02-15T21:48:00;53;46;
76420;PMS5003;65253;52.354;13.614;2023-02-15T21:52:00;60;45;
76420;PMS5003;65253;52.354;13.614;2023-02-15T21:56:01;49;41;
76420;PMS5003;65253;52.354;13.614;2023-02-15T22:00:01;52;46;
76420;PMS5003;65253;52.354;13.614;2023-02-15T22:04:00;64;49;
76420;PMS5003;65253;52.354;13.614;2023-02-15T22:08:00;75;60;
76420;PMS5003;65253;52.354;13.614;2023-02-15T22:12:00;68;58;
76420;PMS5003;65253;52.354;13.614;2023-02-15T22:16:00;92;80;
76420;PMS5003;65253;52.354;13.614;2023-02-15T22:20:00;100;79;
76420;PMS5003;65253;52.354;13.614;2023-02-15T22:24:00;80;68;
76420;PMS5003;65253;52.354;13.614;2023-02-15T22:28:00;95;71;
76420;PMS5003;65253;52.354;13.614;2023-02-15T22:32:00;86;61;
76420;PMS5003;65253;52.354;13.614;2023-02-15T22:36:00;83;64;
76420;PMS5003;65253;52.354;13.614;2023-02-15T22:40:00;83;60;
76420;PMS5003;65253;52.354;13.614;2023-02-15T22:44:00;79;66;
76420;PMS5003;65253;52.354;13.614;2023-02-15T22:48:00;78;63;
76420;PMS5003;65253;52.354;13.614;2023-02-15T22:52:00;83;61;
76420;PMS5003;65253;52.354;13.614;2023-02-15T22:56:01;72;55;
76420;PMS5003;65253;52.354;13.614;2023-02-15T23:00:00;68;52;
76420;PMS5003;65253;52.354;13.614;2023-02-15T23:04:04;80;60;
76420;PMS5003;65253;52.354;13.614;2023-02-15T23:08:00;66;55;
76420;PMS5003;65253;52.354;13.614;2023-02-15T23:12:00;71;54;
76420;PMS5003;65253;52.354;13.614;2023-02-15T23:16:01;79;52;
76420;PMS5003;65253;52.354;13.614;2023-02-15T23:20:00;63;53;
76420;PMS5003;65253;52.354;13.614;2023-02-15T23:24:08;59;47;
76420;PMS5003;65253;52.354;13.614;2023-02-15T23:28:00;53;49;
76420;PMS5003;65253;52.354;13.614;2023-02-15T23:32:00;48;41;
76420;PMS5003;65253;52.354;13.614;2023-02-15T23:36:00;50;36;
76420;PMS5003;65253;52.354;13.614;2023-02-15T23:40:00;33;26;
76420;PMS5003;65253;52.354;13.614;2023-02-15T23:44:01;37;25;
76420;PMS5003;65253;52.354;13.614;2023-02-15T23:48:00;38;26;
76420;PMS5003;65253;52.354;13.614;2023-02-15T23:52:00;33;25;
76420;PMS5003;65253;52.354;13.614;2023-02-15T23:56:00;34;26;
